createdAt,value
2022-09-02T00:01:39.388Z,100.00
2022-09-02T00:04:13.904Z,100.00
2022-09-02T00:06:42.064Z,100.00
2022-09-02T00:09:11.545Z,100.00
2022-09-02T00:11:39.597Z,100.00
2022-09-02T00:14:11.059Z,100.00
2022-09-02T00:16:38.931Z,100.00
2022-09-02T00:19:05.994Z,100.00
2022-09-02T00:21:34.763Z,100.00
2022-09-02T00:24:03.954Z,100.00
2022-09-02T00:26:30.900Z,100.00
2022-09-02T00:28:57.644Z,100.00
2022-09-02T00:31:27.482Z,100.00
2022-09-02T00:33:55.005Z,100.00
2022-09-02T00:36:21.781Z,100.00
2022-09-02T00:38:48.859Z,100.00
2022-09-02T00:41:15.693Z,100.00
2022-09-02T00:43:52.893Z,100.00
2022-09-02T00:46:22.605Z,100.00
2022-09-02T00:49:12.708Z,100.00
2022-09-02T00:51:44.688Z,100.00
2022-09-02T00:54:14.053Z,100.00
2022-09-02T00:56:43.672Z,100.00
2022-09-02T00:59:15.581Z,100.00
2022-09-02T01:01:42.659Z,100.00
2022-09-02T01:04:12.664Z,100.00
2022-09-02T01:06:39.864Z,100.00
2022-09-02T01:09:11.558Z,100.00
2022-09-02T01:11:52.705Z,100.00
2022-09-02T01:14:19.446Z,100.00
2022-09-02T01:16:52.846Z,100.00
2022-09-02T01:19:28.034Z,100.00
2022-09-02T01:21:57.217Z,100.00
2022-09-02T01:24:28.027Z,100.00
2022-09-02T01:26:57.391Z,100.00
2022-09-02T01:29:26.190Z,100.00
2022-09-02T01:31:53.703Z,100.00
2022-09-02T01:34:20.543Z,100.00
2022-09-02T01:36:47.649Z,100.00
2022-09-02T01:39:15.616Z,100.00
2022-09-02T01:41:42.827Z,100.00
2022-09-02T01:44:10.724Z,100.00
2022-09-02T01:46:37.734Z,100.00
2022-09-02T01:49:05.463Z,100.00
2022-09-02T01:51:33.279Z,100.00
2022-09-02T01:54:01.028Z,100.00
2022-09-02T01:56:27.677Z,100.00
2022-09-02T01:58:54.399Z,100.00
2022-09-02T02:01:21.138Z,100.00
2022-09-02T02:03:48.163Z,100.00
2022-09-02T02:06:17.531Z,100.00
2022-09-02T02:08:44.892Z,100.00
2022-09-02T02:11:12.417Z,100.00
2022-09-02T02:13:39.376Z,100.00
2022-09-02T02:16:06.726Z,100.00
2022-09-02T02:18:33.752Z,100.00
2022-09-02T02:21:00.422Z,100.00
2022-09-02T02:23:28.451Z,100.00
2022-09-02T02:25:55.071Z,100.00
2022-09-02T02:28:21.825Z,100.00
2022-09-02T02:30:48.542Z,100.00
2022-09-02T02:33:15.431Z,100.00
2022-09-02T02:35:42.749Z,100.00
2022-09-02T02:38:10.246Z,100.00
2022-09-02T02:40:41.113Z,100.00
2022-09-02T02:43:08.788Z,100.00
2022-09-02T02:45:37.018Z,100.00
2022-09-02T02:48:06.972Z,100.00
2022-09-02T02:50:34.356Z,100.00
2022-09-02T02:53:02.674Z,100.00
2022-09-02T02:55:29.764Z,100.00
2022-09-02T02:57:56.928Z,100.00
2022-09-02T03:00:28.086Z,100.00
2022-09-02T03:02:57.613Z,100.00
2022-09-02T03:05:24.926Z,100.00
2022-09-02T03:07:51.721Z,100.00
2022-09-02T03:10:19.598Z,100.00
2022-09-02T03:12:49.660Z,100.00
2022-09-02T03:15:19.634Z,100.00
2022-09-02T03:17:48.759Z,100.00
2022-09-02T03:20:16.939Z,100.00
2022-09-02T03:22:50.566Z,100.00
2022-09-02T03:25:25.309Z,100.00
2022-09-02T03:27:55.855Z,100.00
2022-09-02T03:30:26.183Z,100.00
2022-09-02T03:32:53.859Z,100.00
2022-09-02T03:35:22.128Z,100.00
2022-09-02T03:37:51.503Z,100.00
2022-09-02T03:40:21.929Z,100.00
2022-09-02T03:42:51.063Z,100.00
2022-09-02T03:45:18.513Z,100.00
2022-09-02T03:47:56.852Z,100.00
2022-09-02T03:50:31.366Z,100.00
2022-09-02T03:52:59.654Z,100.00
2022-09-02T03:55:27.603Z,100.00
2022-09-02T03:57:55.145Z,100.00
2022-09-02T04:00:25.649Z,100.00
2022-09-02T04:02:55.328Z,100.00
2022-09-02T04:05:24.075Z,100.00
2022-09-02T04:07:54.035Z,100.00
2022-09-02T04:10:21.973Z,100.00
2022-09-02T04:12:53.351Z,100.00
2022-09-02T04:15:20.800Z,100.00
2022-09-02T04:18:46.351Z,100.00
2022-09-02T04:21:34.734Z,100.00
2022-09-02T04:24:02.183Z,100.00
2022-09-02T04:26:29.616Z,100.00
2022-09-02T04:28:58.032Z,100.00
2022-09-02T04:31:32.030Z,100.00
2022-09-02T04:34:00.509Z,100.00
2022-09-02T04:36:30.649Z,100.00
2022-09-02T04:39:00.237Z,100.00
2022-09-02T04:41:30.927Z,100.00
2022-09-02T04:44:02.084Z,100.00
2022-09-02T04:46:34.557Z,100.00
2022-09-02T04:49:08.690Z,100.00
2022-09-02T04:51:37.409Z,100.00
2022-09-02T04:54:05.726Z,100.00
2022-09-02T04:56:32.457Z,100.00
2022-09-02T04:59:00.986Z,100.00
2022-09-02T05:01:36.517Z,100.00
2022-09-02T05:04:09.831Z,100.00
2022-09-02T05:06:44.134Z,100.00
2022-09-02T05:09:21.185Z,100.00
2022-09-02T05:11:59.090Z,100.00
2022-09-02T05:14:32.788Z,100.00
2022-09-02T05:17:07.647Z,100.00
2022-09-02T05:19:37.714Z,100.00
2022-09-02T05:22:05.119Z,100.00
2022-09-02T05:24:36.124Z,100.00
2022-09-02T05:27:06.960Z,100.00
2022-09-02T05:29:35.374Z,100.00
2022-09-02T05:32:02.447Z,100.00
2022-09-02T05:34:29.173Z,100.00
2022-09-02T05:36:58.875Z,100.00
2022-09-02T05:39:29.172Z,100.00
2022-09-02T05:41:55.878Z,100.00
2022-09-02T05:44:22.761Z,100.00
2022-09-02T05:46:49.551Z,100.00
2022-09-02T05:49:17.845Z,100.00
2022-09-02T05:51:56.093Z,100.00
2022-09-02T05:54:35.037Z,100.00
2022-09-02T05:57:09.200Z,100.00
2022-09-02T05:59:42.190Z,100.00
2022-09-02T06:02:13.266Z,100.00
2022-09-02T06:04:43.270Z,100.00
2022-09-02T06:07:11.750Z,100.00
2022-09-02T06:09:45.055Z,100.00
2022-09-02T06:12:13.505Z,100.00
2022-09-02T06:14:41.514Z,100.00
2022-09-02T06:17:27.389Z,100.00
2022-09-02T06:19:56.019Z,100.00
2022-09-02T06:22:26.015Z,100.00
2022-09-02T06:24:57.717Z,100.00
2022-09-02T06:27:26.648Z,100.00
2022-09-02T06:29:54.322Z,100.00
2022-09-02T06:32:23.751Z,100.00
2022-09-02T06:34:55.717Z,100.00
2022-09-02T06:37:25.009Z,100.00
2022-09-02T06:39:51.969Z,100.00
2022-09-02T06:42:24.231Z,100.00
2022-09-02T06:45:09.794Z,100.00
2022-09-02T06:47:38.204Z,100.00
2022-09-02T06:50:05.683Z,100.00
2022-09-02T06:52:32.799Z,100.00
2022-09-02T06:55:00.600Z,100.00
2022-09-02T06:57:33.982Z,100.00
2022-09-02T07:00:09.528Z,100.00
2022-09-02T07:02:37.498Z,100.00
2022-09-02T07:05:11.346Z,100.00
2022-09-02T07:07:40.712Z,100.00
2022-09-02T07:10:13.198Z,100.00
2022-09-02T07:12:44.360Z,100.00
2022-09-02T07:15:15.283Z,100.00
2022-09-02T07:17:43.479Z,100.00
2022-09-02T07:20:16.578Z,100.00
2022-09-02T07:22:56.817Z,100.00
2022-09-02T07:25:26.671Z,100.00
2022-09-02T07:27:54.777Z,100.00
2022-09-02T07:30:22.658Z,100.00
2022-09-02T07:32:56.206Z,100.00
2022-09-02T07:35:25.021Z,100.00
2022-09-02T07:37:52.652Z,100.00
2022-09-02T07:40:21.586Z,100.00
2022-09-02T07:42:48.329Z,100.00
2022-09-02T07:45:15.060Z,100.00
2022-09-02T07:47:43.940Z,100.00
2022-09-02T07:50:19.486Z,100.00
2022-09-02T07:52:52.246Z,100.00
2022-09-02T07:55:19.247Z,100.00
2022-09-02T07:57:48.076Z,100.00
2022-09-02T08:00:20.136Z,100.00
2022-09-02T08:02:49.986Z,100.00
2022-09-02T08:05:23.255Z,98.83
2022-09-02T08:07:50.010Z,100.00
2022-09-02T08:10:17.182Z,97.88
2022-09-02T08:12:44.390Z,98.27
2022-09-02T08:15:12.316Z,96.26
2022-09-02T08:17:40.782Z,94.98
2022-09-02T08:20:12.294Z,93.25
2022-09-02T08:22:41.813Z,92.20
2022-09-02T08:25:09.797Z,92.01
2022-09-02T08:27:37.975Z,94.95
2022-09-02T08:30:09.884Z,93.27
2022-09-02T08:32:40.461Z,93.65
2022-09-02T08:35:09.330Z,87.28
2022-09-02T08:37:37.187Z,87.51
2022-09-02T08:40:07.377Z,83.39
2022-09-02T08:42:55.244Z,83.02
2022-09-02T08:45:37.751Z,86.26
2022-09-02T08:48:08.264Z,80.91
2022-09-02T08:50:37.626Z,82.66
2022-09-02T08:53:09.015Z,85.21
2022-09-02T08:55:45.735Z,78.08
2022-09-02T08:58:19.149Z,79.77
2022-09-02T09:00:57.117Z,74.69
2022-09-02T09:03:37.758Z,79.78
2022-09-02T09:06:13.283Z,77.37
2022-09-02T09:09:32.277Z,75.03
2022-09-02T09:12:07.771Z,77.84
2022-09-02T09:14:59.288Z,76.74
2022-09-02T09:17:33.625Z,73.64
2022-09-02T09:20:06.480Z,73.36
2022-09-02T09:22:39.561Z,67.88
2022-09-02T09:25:12.514Z,69.30
2022-09-02T09:27:40.293Z,69.77
2022-09-02T09:30:12.976Z,65.77
2022-09-02T09:32:46.386Z,60.50
2022-09-02T09:35:15.209Z,58.17
2022-09-02T09:37:48.957Z,57.81
2022-09-02T09:40:21.890Z,61.40
2022-09-02T09:42:55.399Z,62.33
2022-09-02T09:45:28.834Z,54.39
2022-09-02T09:48:23.172Z,55.90
2022-09-02T09:51:11.280Z,57.49
2022-09-02T09:53:41.215Z,56.78
2022-09-02T09:56:24.484Z,55.21
2022-09-02T09:58:51.435Z,54.53
2022-09-02T10:01:19.948Z,55.40
2022-09-02T10:03:53.397Z,56.26
2022-09-02T10:06:22.435Z,54.84
2022-09-02T10:08:57.505Z,56.91
2022-09-02T10:11:27.837Z,52.57
2022-09-02T10:14:01.078Z,51.24
2022-09-02T10:16:36.741Z,51.39
2022-09-02T10:19:30.237Z,54.37
2022-09-02T10:22:04.216Z,54.43
2022-09-02T10:25:03.259Z,51.96
2022-09-02T10:27:49.708Z,53.43
2022-09-02T10:30:23.297Z,51.29
2022-09-02T10:33:14.546Z,50.98
2022-09-02T10:35:43.504Z,52.62
2022-09-02T10:38:39.731Z,53.06
2022-09-02T10:44:32.999Z,46.27
2022-09-02T10:47:05.928Z,44.55
2022-09-02T10:50:03.386Z,48.11
2022-09-02T10:52:35.110Z,46.31
2022-09-02T10:55:13.952Z,44.07
2022-09-02T10:57:47.148Z,44.16
2022-09-02T11:00:20.243Z,42.19
2022-09-02T11:02:53.781Z,44.33
2022-09-02T11:05:28.191Z,43.61
2022-09-02T11:08:06.689Z,43.32
2022-09-02T11:10:39.931Z,41.89
2022-09-02T11:13:14.481Z,40.75
2022-09-02T11:15:57.784Z,39.10
2022-09-02T11:18:52.539Z,37.44
2022-09-02T11:21:45.867Z,38.59
2022-09-02T11:24:28.167Z,38.34
2022-09-02T11:27:25.527Z,38.12
2022-09-02T11:30:04.963Z,36.71
2022-09-02T11:32:37.628Z,35.93
2022-09-02T11:35:09.605Z,36.99
2022-09-02T11:37:39.010Z,36.39
2022-09-02T11:40:34.902Z,36.26
2022-09-02T11:43:05.409Z,34.79
2022-09-02T11:45:40.895Z,33.54
2022-09-02T11:48:28.209Z,32.13
2022-09-02T11:51:38.721Z,33.81
2022-09-02T11:54:08.960Z,36.53
2022-09-02T11:56:42.069Z,33.81
2022-09-02T11:59:20.947Z,33.74
2022-09-02T12:01:54.265Z,32.22
2022-09-02T12:04:58.646Z,34.37
2022-09-02T12:07:24.307Z,33.22
2022-09-02T12:09:56.893Z,35.95
2022-09-02T12:12:39.165Z,33.37
2022-09-02T12:15:06.443Z,34.81
2022-09-02T12:17:59.570Z,31.81
2022-09-02T12:20:39.237Z,34.50
2022-09-02T12:23:07.855Z,32.86
2022-09-02T12:25:41.015Z,31.99
2022-09-02T12:28:19.123Z,29.53
2022-09-02T12:31:13.246Z,31.26
2022-09-02T12:33:51.635Z,30.21
2022-09-02T12:36:36.641Z,31.75
2022-09-02T12:39:28.313Z,29.87
2022-09-02T12:42:24.276Z,29.33
2022-09-02T12:45:09.194Z,29.34
2022-09-02T12:47:49.982Z,28.37
2022-09-02T12:50:27.303Z,29.29
2022-09-02T12:53:23.173Z,26.86
2022-09-02T12:56:15.164Z,29.84
2022-09-02T12:58:50.359Z,28.42
2022-09-02T13:01:19.759Z,30.17
2022-09-02T13:03:59.039Z,28.62
2022-09-02T13:06:31.481Z,26.02
2022-09-02T13:09:01.166Z,26.62
2022-09-02T13:11:59.280Z,29.40
2022-09-02T13:14:35.095Z,30.21
2022-09-02T13:17:42.753Z,26.46
2022-09-02T13:20:23.224Z,25.14
2022-09-02T13:23:17.819Z,26.96
2022-09-02T13:26:00.781Z,25.58
2022-09-02T13:29:05.088Z,28.15
2022-09-02T13:31:31.779Z,28.79
2022-09-02T13:34:05.629Z,27.19
2022-09-02T13:36:36.857Z,25.57
2022-09-02T13:39:17.037Z,24.93
2022-09-02T13:41:44.275Z,25.67
2022-09-02T13:44:29.618Z,25.82
2022-09-02T13:47:04.501Z,26.85
2022-09-02T13:49:37.808Z,27.34
2022-09-02T13:52:08.115Z,26.81
2022-09-02T13:54:43.832Z,27.09
2022-09-02T13:57:19.657Z,24.02
2022-09-02T13:59:52.973Z,24.82
2022-09-02T14:02:19.663Z,25.40
2022-09-02T14:04:48.162Z,24.55
2022-09-02T14:07:15.821Z,25.97
2022-09-02T14:09:45.207Z,26.45
2022-09-02T14:12:12.087Z,25.00
2022-09-02T14:14:41.198Z,23.47
2022-09-02T14:17:24.925Z,24.69
2022-09-02T14:19:52.480Z,24.85
2022-09-02T14:22:27.448Z,25.52
2022-09-02T14:24:56.362Z,26.79
2022-09-02T14:27:24.379Z,24.83
2022-09-02T14:29:56.871Z,26.68
2022-09-02T14:32:28.059Z,26.49
2022-09-02T14:35:20.953Z,25.85
2022-09-02T14:37:49.012Z,25.24
2022-09-02T14:40:16.564Z,24.79
2022-09-02T14:42:56.552Z,24.62
2022-09-02T14:45:30.674Z,23.33
2022-09-02T14:48:04.854Z,24.55
2022-09-02T14:50:36.596Z,25.08
2022-09-02T14:53:09.305Z,25.36
2022-09-02T14:55:55.446Z,25.58
2022-09-02T14:58:27.307Z,26.86
2022-09-02T15:00:57.987Z,24.65
2022-09-02T15:03:26.033Z,25.88
2022-09-02T15:05:53.729Z,27.38
2022-09-02T15:08:21.464Z,26.13
2022-09-02T15:10:48.845Z,26.79
2022-09-02T15:13:26.189Z,25.62
2022-09-02T15:15:53.214Z,25.46
2022-09-02T15:18:20.133Z,27.23
2022-09-02T15:20:46.897Z,28.91
2022-09-02T15:23:15.332Z,29.97
2022-09-02T15:25:42.275Z,30.39
2022-09-02T15:28:08.977Z,31.62
2022-09-02T15:30:36.217Z,32.95
2022-09-02T15:33:04.689Z,34.04
2022-09-02T15:35:38.220Z,35.56
2022-09-02T15:38:04.938Z,35.96
2022-09-02T15:40:32.162Z,38.16
2022-09-02T15:43:00.109Z,38.62
2022-09-02T15:45:28.197Z,40.10
2022-09-02T15:47:58.925Z,40.67
2022-09-02T15:50:26.238Z,41.48
2022-09-02T15:52:55.912Z,38.32
2022-09-02T15:55:26.391Z,35.49
2022-09-02T15:57:56.882Z,35.09
2022-09-02T16:00:27.588Z,36.40
2022-09-02T16:02:57.290Z,37.54
2022-09-02T16:05:24.654Z,39.10
2022-09-02T16:07:52.170Z,40.15
2022-09-02T16:10:19.190Z,41.49
2022-09-02T16:12:46.148Z,42.83
2022-09-02T16:15:15.708Z,43.10
2022-09-02T16:17:45.130Z,43.31
2022-09-02T16:20:12.444Z,44.05
2022-09-02T16:22:39.114Z,45.35
2022-09-02T16:25:06.403Z,46.39
2022-09-02T16:27:51.591Z,47.25
2022-09-02T16:30:18.892Z,47.75
2022-09-02T16:32:50.967Z,47.04
2022-09-02T16:35:17.947Z,45.94
2022-09-02T16:37:44.836Z,48.21
2022-09-02T16:40:21.517Z,48.74
2022-09-02T16:42:48.762Z,49.73
2022-09-02T16:45:15.441Z,52.20
2022-09-02T16:47:42.598Z,53.90
2022-09-02T16:50:10.897Z,52.65
2022-09-02T16:52:38.181Z,53.25
2022-09-02T16:55:05.455Z,52.33
2022-09-02T16:57:32.483Z,52.85
2022-09-02T16:59:59.534Z,53.97
2022-09-02T17:02:28.255Z,56.80
2022-09-02T17:04:55.352Z,56.38
2022-09-02T17:07:22.002Z,55.18
2022-09-02T17:09:48.648Z,54.16
2022-09-02T17:12:15.309Z,55.11
2022-09-02T17:14:41.932Z,54.59
2022-09-02T17:17:08.647Z,56.05
2022-09-02T17:19:35.346Z,58.64
2022-09-02T17:22:02.384Z,58.77
2022-09-02T17:24:30.705Z,59.73
2022-09-02T17:26:57.704Z,62.35
2022-09-02T17:29:49.031Z,63.04
2022-09-02T17:32:20.952Z,64.48
2022-09-02T17:34:49.827Z,65.04
2022-09-02T17:37:17.146Z,66.01
2022-09-02T17:39:43.907Z,66.37
2022-09-02T17:42:12.237Z,69.17
2022-09-02T17:44:39.954Z,68.35
2022-09-02T17:47:08.212Z,70.56
2022-09-02T17:49:36.852Z,71.88
2022-09-02T17:52:05.539Z,74.61
2022-09-02T17:54:32.318Z,74.25
2022-09-02T17:57:05.057Z,75.17
2022-09-02T18:00:11.024Z,77.85
2022-09-02T18:02:56.657Z,79.49
2022-09-02T18:05:34.603Z,82.95
2022-09-02T18:08:38.735Z,84.62
2022-09-02T18:11:07.709Z,87.81
2022-09-02T18:13:43.657Z,88.49
2022-09-02T18:16:52.779Z,91.55
2022-09-02T18:19:53.443Z,93.78
2022-09-02T18:22:35.933Z,92.45
2022-09-02T18:25:15.038Z,92.98
2022-09-02T18:27:52.532Z,94.01
2022-09-02T18:30:43.075Z,94.23
2022-09-02T18:33:15.774Z,95.10
2022-09-02T18:35:55.686Z,93.86
2022-09-02T18:38:29.858Z,96.24
2022-09-02T18:41:15.772Z,95.64
2022-09-02T18:43:54.618Z,98.44
2022-09-02T18:46:24.896Z,96.18
2022-09-02T18:48:53.602Z,95.77
2022-09-02T18:51:40.918Z,96.73
2022-09-02T18:54:23.515Z,97.23
2022-09-02T18:56:56.689Z,94.86
2022-09-02T18:59:40.661Z,96.57
2022-09-02T19:02:20.312Z,95.95
2022-09-02T19:04:46.999Z,98.10
2022-09-02T19:07:38.210Z,97.71
2022-09-02T19:10:06.200Z,97.03
2022-09-02T19:12:36.325Z,99.01
2022-09-02T19:15:08.425Z,96.77
2022-09-02T19:17:36.176Z,99.11
2022-09-02T19:20:03.678Z,100.00
2022-09-02T19:22:34.234Z,100.00
2022-09-02T19:25:07.638Z,100.00
2022-09-02T19:27:39.619Z,100.00
2022-09-02T19:30:15.755Z,98.77
2022-09-02T19:32:46.433Z,98.94
2022-09-02T19:35:16.702Z,100.00
2022-09-02T19:37:51.324Z,99.85
2022-09-02T19:40:32.985Z,99.63
2022-09-02T19:43:06.089Z,98.98
2022-09-02T19:45:37.623Z,100.00
2022-09-02T19:48:08.387Z,100.00
2022-09-02T19:50:38.413Z,100.00
2022-09-02T19:53:06.034Z,100.00
2022-09-02T19:55:33.876Z,100.00
2022-09-02T19:58:00.625Z,100.00
2022-09-02T20:00:28.004Z,100.00
2022-09-02T20:02:56.975Z,100.00
2022-09-02T20:05:25.829Z,100.00
2022-09-02T20:07:56.526Z,100.00
2022-09-02T20:10:27.784Z,100.00
2022-09-02T20:12:54.988Z,100.00
2022-09-02T20:15:24.491Z,100.00
2022-09-02T20:17:51.181Z,100.00
2022-09-02T20:20:21.659Z,100.00
2022-09-02T20:22:53.432Z,100.00
2022-09-02T20:25:24.737Z,100.00
2022-09-02T20:28:12.560Z,100.00
2022-09-02T20:30:45.321Z,100.00
2022-09-02T20:33:19.937Z,100.00
2022-09-02T20:36:02.609Z,100.00
2022-09-02T20:39:04.951Z,100.00
2022-09-02T20:42:03.981Z,100.00
2022-09-02T20:44:54.577Z,99.16
2022-09-02T20:47:44.816Z,100.00
2022-09-02T20:50:37.943Z,100.00
2022-09-02T20:53:30.488Z,100.00
2022-09-02T20:56:09.146Z,100.00
2022-09-02T20:59:06.147Z,100.00
2022-09-02T21:01:39.620Z,99.87
2022-09-02T21:04:06.439Z,99.82
2022-09-02T21:06:41.040Z,100.00
2022-09-02T21:09:30.217Z,98.75
2022-09-02T21:12:08.020Z,96.54
2022-09-02T21:14:46.793Z,96.44
2022-09-02T21:17:21.471Z,96.91
2022-09-02T21:19:48.325Z,96.46
2022-09-02T21:22:33.895Z,95.38
2022-09-02T21:25:10.131Z,94.17
2022-09-02T21:27:47.026Z,93.17
2022-09-02T21:30:19.875Z,95.11
2022-09-02T21:33:08.828Z,94.02
2022-09-02T21:35:41.186Z,92.10
2022-09-02T21:38:35.982Z,93.66
2022-09-02T21:41:20.535Z,91.80
2022-09-02T21:44:05.160Z,89.48
2022-09-02T21:46:39.319Z,88.88
2022-09-02T21:49:06.408Z,89.98
2022-09-02T21:51:39.092Z,89.30
2022-09-02T21:54:33.328Z,87.28
2022-09-02T21:57:19.081Z,88.45
2022-09-02T22:00:14.629Z,89.78
2022-09-02T22:03:12.978Z,91.83
2022-09-02T22:05:49.433Z,91.05
2022-09-02T22:08:58.517Z,91.64
2022-09-02T22:11:35.195Z,88.98
2022-09-02T22:14:14.443Z,89.72
2022-09-02T22:16:56.345Z,90.21
2022-09-02T22:19:29.903Z,90.72
2022-09-02T22:22:16.831Z,94.02
2022-09-02T22:24:44.717Z,90.77
2022-09-02T22:27:13.381Z,92.00
2022-09-02T22:29:47.716Z,93.86
2022-09-02T22:32:18.074Z,94.78
2022-09-02T22:34:59.912Z,95.76
2022-09-02T22:37:40.091Z,94.07
2022-09-02T22:40:13.278Z,94.11
2022-09-02T22:42:40.837Z,93.06
2022-09-02T22:45:31.241Z,91.98
2022-09-02T22:48:42.039Z,93.78
2022-09-02T22:51:34.599Z,94.29
2022-09-02T22:54:01.576Z,95.67
2022-09-02T22:57:02.379Z,96.71
2022-09-02T22:59:48.768Z,99.28
2022-09-02T23:02:34.484Z,98.85
2022-09-02T23:05:07.228Z,99.16
2022-09-02T23:07:33.834Z,99.51
2022-09-02T23:10:15.300Z,98.71
2022-09-02T23:12:53.570Z,98.58
2022-09-02T23:15:32.970Z,100.00
2022-09-02T23:18:17.182Z,100.00
2022-09-02T23:20:59.019Z,100.00
2022-09-02T23:23:45.620Z,100.00
2022-09-02T23:26:21.205Z,100.00
2022-09-02T23:28:58.909Z,100.00
2022-09-02T23:31:50.692Z,100.00
2022-09-02T23:34:51.804Z,100.00
2022-09-02T23:37:38.006Z,100.00
2022-09-02T23:40:13.518Z,100.00
2022-09-02T23:42:40.407Z,100.00
2022-09-02T23:45:21.787Z,100.00
2022-09-02T23:48:17.330Z,100.00
2022-09-02T23:51:10.433Z,100.00
2022-09-02T23:53:55.816Z,100.00
2022-09-02T23:56:51.278Z,100.00
2022-09-02T23:59:29.964Z,100.00
